sensor_id;sensor_type;location;lat;lon;timestamp;P1;durP1;ratioP1;P2;durP2;ratioP2
63189;SDS011;49286;44.460;26.114;2023-04-03T00:00:02;17.25;;;15.25;;
63189;SDS011;49286;44.460;26.114;2023-04-03T00:02:28;18.10;;;14.98;;
63189;SDS011;49286;44.460;26.114;2023-04-03T00:04:54;16.10;;;14.38;;
63189;SDS011;49286;44.460;26.114;2023-04-03T00:07:20;17.10;;;14.60;;
63189;SDS011;49286;44.460;26.114;2023-04-03T00:09:45;17.00;;;14.07;;
63189;SDS011;49286;44.460;26.114;2023-04-03T00:12:11;19.00;;;14.50;;
63189;SDS011;49286;44.460;26.114;2023-04-03T00:14:36;16.10;;;14.07;;
63189;SDS011;49286;44.460;26.114;2023-04-03T00:17:02;18.63;;;15.35;;
63189;SDS011;49286;44.460;26.114;2023-04-03T00:19:27;18.58;;;15.02;;
63189;SDS011;49286;44.460;26.114;2023-04-03T00:21:53;17.15;;;15.32;;
63189;SDS011;49286;44.460;26.114;2023-04-03T00:24:18;17.48;;;15.50;;
63189;SDS011;49286;44.460;26.114;2023-04-03T00:26:44;19.42;;;15.48;;
63189;SDS011;49286;44.460;26.114;2023-04-03T00:29:09;20.02;;;15.02;;
63189;SDS011;49286;44.460;26.114;2023-04-03T00:31:35;21.92;;;15.75;;
63189;SDS011;49286;44.460;26.114;2023-04-03T00:34:00;16.83;;;13.82;;
63189;SDS011;49286;44.460;26.114;2023-04-03T00:36:26;17.35;;;15.38;;
63189;SDS011;49286;44.460;26.114;2023-04-03T00:38:51;20.15;;;15.45;;
63189;SDS011;49286;44.460;26.114;2023-04-03T00:41:17;15.30;;;13.65;;
63189;SDS011;49286;44.460;26.114;2023-04-03T00:43:42;16.00;;;14.02;;
63189;SDS011;49286;44.460;26.114;2023-04-03T00:46:08;16.35;;;14.45;;
63189;SDS011;49286;44.460;26.114;2023-04-03T00:48:38;18.02;;;15.40;;
63189;SDS011;49286;44.460;26.114;2023-04-03T00:51:11;16.90;;;15.05;;
63189;SDS011;49286;44.460;26.114;2023-04-03T00:53:41;17.77;;;15.43;;
63189;SDS011;49286;44.460;26.114;2023-04-03T00:56:12;17.65;;;15.85;;
63189;SDS011;49286;44.460;26.114;2023-04-03T00:58:43;19.98;;;15.70;;
63189;SDS011;49286;44.460;26.114;2023-04-03T01:01:18;15.68;;;14.13;;
63189;SDS011;49286;44.460;26.114;2023-04-03T01:03:47;24.33;;;16.05;;
63189;SDS011;49286;44.460;26.114;2023-04-03T01:06:14;18.63;;;15.27;;
63189;SDS011;49286;44.460;26.114;2023-04-03T01:08:42;18.55;;;15.60;;
63189;SDS011;49286;44.460;26.114;2023-04-03T01:11:08;18.48;;;16.25;;
63189;SDS011;49286;44.460;26.114;2023-04-03T01:13:33;16.85;;;15.15;;
63189;SDS011;49286;44.460;26.114;2023-04-03T01:16:02;18.80;;;15.88;;
63189;SDS011;49286;44.460;26.114;2023-04-03T01:18:29;19.15;;;16.73;;
63189;SDS011;49286;44.460;26.114;2023-04-03T01:23:26;21.08;;;18.70;;
63189;SDS011;49286;44.460;26.114;2023-04-03T01:26:00;19.05;;;16.70;;
63189;SDS011;49286;44.460;26.114;2023-04-03T01:28:27;22.48;;;18.85;;
63189;SDS011;49286;44.460;26.114;2023-04-03T01:33:39;21.88;;;18.17;;
63189;SDS011;49286;44.460;26.114;2023-04-03T01:36:05;22.50;;;19.20;;
63189;SDS011;49286;44.460;26.114;2023-04-03T01:38:31;18.35;;;15.55;;
63189;SDS011;49286;44.460;26.114;2023-04-03T01:40:57;19.35;;;17.15;;
63189;SDS011;49286;44.460;26.114;2023-04-03T01:43:23;23.23;;;19.15;;
63189;SDS011;49286;44.460;26.114;2023-04-03T01:45:48;21.33;;;18.55;;
63189;SDS011;49286;44.460;26.114;2023-04-03T01:48:15;23.08;;;18.23;;
63189;SDS011;49286;44.460;26.114;2023-04-03T01:50:41;23.42;;;17.75;;
63189;SDS011;49286;44.460;26.114;2023-04-03T01:53:06;23.05;;;19.52;;
63189;SDS011;49286;44.460;26.114;2023-04-03T01:55:32;20.10;;;17.80;;
63189;SDS011;49286;44.460;26.114;2023-04-03T01:57:58;25.77;;;21.40;;
63189;SDS011;49286;44.460;26.114;2023-04-03T02:00:23;24.77;;;19.80;;
63189;SDS011;49286;44.460;26.114;2023-04-03T02:02:48;23.48;;;18.08;;
63189;SDS011;49286;44.460;26.114;2023-04-03T02:05:14;22.90;;;19.92;;
63189;SDS011;49286;44.460;26.114;2023-04-03T02:07:40;21.20;;;18.90;;
63189;SDS011;49286;44.460;26.114;2023-04-03T02:10:06;27.08;;;21.63;;
63189;SDS011;49286;44.460;26.114;2023-04-03T02:12:32;26.27;;;20.48;;
63189;SDS011;49286;44.460;26.114;2023-04-03T02:14:57;26.30;;;23.25;;
63189;SDS011;49286;44.460;26.114;2023-04-03T02:17:23;28.52;;;25.42;;
63189;SDS011;49286;44.460;26.114;2023-04-03T02:19:48;26.70;;;22.65;;
63189;SDS011;49286;44.460;26.114;2023-04-03T02:22:14;28.55;;;24.58;;
63189;SDS011;49286;44.460;26.114;2023-04-03T02:24:39;28.15;;;24.67;;
63189;SDS011;49286;44.460;26.114;2023-04-03T02:27:05;27.08;;;24.17;;
63189;SDS011;49286;44.460;26.114;2023-04-03T02:29:31;33.80;;;29.90;;
63189;SDS011;49286;44.460;26.114;2023-04-03T02:31:56;38.67;;;26.15;;
63189;SDS011;49286;44.460;26.114;2023-04-03T02:34:22;33.30;;;28.90;;
63189;SDS011;49286;44.460;26.114;2023-04-03T02:36:47;38.13;;;32.92;;
63189;SDS011;49286;44.460;26.114;2023-04-03T02:39:12;33.45;;;29.85;;
63189;SDS011;49286;44.460;26.114;2023-04-03T02:41:38;37.58;;;31.20;;
63189;SDS011;49286;44.460;26.114;2023-04-03T02:44:04;38.55;;;34.42;;
63189;SDS011;49286;44.460;26.114;2023-04-03T02:46:31;35.55;;;29.85;;
63189;SDS011;49286;44.460;26.114;2023-04-03T02:48:58;35.95;;;28.65;;
63189;SDS011;49286;44.460;26.114;2023-04-03T02:51:23;34.10;;;30.27;;
63189;SDS011;49286;44.460;26.114;2023-04-03T02:53:49;36.28;;;31.58;;
63189;SDS011;49286;44.460;26.114;2023-04-03T02:56:15;36.08;;;31.20;;
63189;SDS011;49286;44.460;26.114;2023-04-03T02:58:43;37.58;;;33.55;;
63189;SDS011;49286;44.460;26.114;2023-04-03T03:01:09;38.38;;;34.28;;
63189;SDS011;49286;44.460;26.114;2023-04-03T03:03:35;39.25;;;34.03;;
63189;SDS011;49286;44.460;26.114;2023-04-03T03:06:01;38.35;;;32.20;;
63189;SDS011;49286;44.460;26.114;2023-04-03T03:08:28;38.97;;;34.13;;
63189;SDS011;49286;44.460;26.114;2023-04-03T03:10:54;40.50;;;32.75;;
63189;SDS011;49286;44.460;26.114;2023-04-03T03:13:19;38.63;;;33.15;;
63189;SDS011;49286;44.460;26.114;2023-04-03T03:15:45;39.63;;;32.92;;
63189;SDS011;49286;44.460;26.114;2023-04-03T03:18:10;38.70;;;33.88;;
63189;SDS011;49286;44.460;26.114;2023-04-03T03:20:36;39.17;;;32.28;;
63189;SDS011;49286;44.460;26.114;2023-04-03T03:23:02;34.88;;;31.02;;
63189;SDS011;49286;44.460;26.114;2023-04-03T03:25:28;37.17;;;32.65;;
63189;SDS011;49286;44.460;26.114;2023-04-03T03:27:53;22.83;;;17.35;;
63189;SDS011;49286;44.460;26.114;2023-04-03T03:30:19;25.90;;;16.90;;
63189;SDS011;49286;44.460;26.114;2023-04-03T03:32:44;21.45;;;15.93;;
63189;SDS011;49286;44.460;26.114;2023-04-03T03:35:10;32.88;;;28.65;;
63189;SDS011;49286;44.460;26.114;2023-04-03T03:37:35;33.17;;;27.67;;
63189;SDS011;49286;44.460;26.114;2023-04-03T03:40:01;31.27;;;25.45;;
63189;SDS011;49286;44.460;26.114;2023-04-03T03:42:27;34.33;;;24.98;;
63189;SDS011;49286;44.460;26.114;2023-04-03T03:44:53;31.63;;;23.48;;
63189;SDS011;49286;44.460;26.114;2023-04-03T03:47:18;30.52;;;24.40;;
63189;SDS011;49286;44.460;26.114;2023-04-03T03:49:44;28.17;;;23.65;;
63189;SDS011;49286;44.460;26.114;2023-04-03T03:52:09;34.33;;;26.13;;
63189;SDS011;49286;44.460;26.114;2023-04-03T03:54:36;31.95;;;25.10;;
63189;SDS011;49286;44.460;26.114;2023-04-03T03:57:02;26.20;;;23.40;;
63189;SDS011;49286;44.460;26.114;2023-04-03T03:59:28;26.58;;;22.95;;
63189;SDS011;49286;44.460;26.114;2023-04-03T04:01:53;30.55;;;22.00;;
63189;SDS011;49286;44.460;26.114;2023-04-03T04:04:19;26.05;;;22.98;;
63189;SDS011;49286;44.460;26.114;2023-04-03T04:06:46;28.40;;;21.98;;
63189;SDS011;49286;44.460;26.114;2023-04-03T04:09:12;31.77;;;26.08;;
63189;SDS011;49286;44.460;26.114;2023-04-03T04:11:37;29.02;;;24.10;;
63189;SDS011;49286;44.460;26.114;2023-04-03T04:14:04;28.23;;;23.75;;
63189;SDS011;49286;44.460;26.114;2023-04-03T04:16:30;27.73;;;24.75;;
63189;SDS011;49286;44.460;26.114;2023-04-03T04:18:56;30.52;;;24.42;;
63189;SDS011;49286;44.460;26.114;2023-04-03T04:21:21;37.65;;;24.25;;
63189;SDS011;49286;44.460;26.114;2023-04-03T04:23:47;28.20;;;24.35;;
63189;SDS011;49286;44.460;26.114;2023-04-03T04:26:12;28.98;;;23.52;;
63189;SDS011;49286;44.460;26.114;2023-04-03T04:28:38;27.23;;;24.33;;
63189;SDS011;49286;44.460;26.114;2023-04-03T04:31:03;26.63;;;23.75;;
63189;SDS011;49286;44.460;26.114;2023-04-03T04:33:29;31.88;;;24.15;;
63189;SDS011;49286;44.460;26.114;2023-04-03T04:35:55;29.48;;;25.13;;
63189;SDS011;49286;44.460;26.114;2023-04-03T04:38:20;36.38;;;25.15;;
63189;SDS011;49286;44.460;26.114;2023-04-03T04:40:47;27.85;;;23.80;;
63189;SDS011;49286;44.460;26.114;2023-04-03T04:43:13;33.85;;;27.85;;
63189;SDS011;49286;44.460;26.114;2023-04-03T04:45:39;32.95;;;25.70;;
63189;SDS011;49286;44.460;26.114;2023-04-03T04:48:05;25.75;;;21.27;;
63189;SDS011;49286;44.460;26.114;2023-04-03T04:50:31;23.88;;;21.20;;
63189;SDS011;49286;44.460;26.114;2023-04-03T04:52:57;26.58;;;23.70;;
63189;SDS011;49286;44.460;26.114;2023-04-03T04:55:22;29.30;;;24.90;;
63189;SDS011;49286;44.460;26.114;2023-04-03T04:57:48;28.30;;;23.35;;
63189;SDS011;49286;44.460;26.114;2023-04-03T05:00:13;22.38;;;19.42;;
63189;SDS011;49286;44.460;26.114;2023-04-03T05:02:40;23.38;;;20.90;;
63189;SDS011;49286;44.460;26.114;2023-04-03T05:05:05;25.80;;;19.45;;
63189;SDS011;49286;44.460;26.114;2023-04-03T05:07:31;23.23;;;20.65;;
63189;SDS011;49286;44.460;26.114;2023-04-03T05:09:57;26.50;;;22.45;;
63189;SDS011;49286;44.460;26.114;2023-04-03T05:12:22;21.77;;;19.48;;
63189;SDS011;49286;44.460;26.114;2023-04-03T05:14:48;22.83;;;19.25;;
63189;SDS011;49286;44.460;26.114;2023-04-03T05:17:13;20.65;;;18.02;;
63189;SDS011;49286;44.460;26.114;2023-04-03T05:19:39;22.45;;;19.60;;
63189;SDS011;49286;44.460;26.114;2023-04-03T05:22:04;19.48;;;17.08;;
63189;SDS011;49286;44.460;26.114;2023-04-03T05:24:30;19.17;;;16.23;;
63189;SDS011;49286;44.460;26.114;2023-04-03T05:26:55;18.48;;;15.45;;
63189;SDS011;49286;44.460;26.114;2023-04-03T05:29:21;19.45;;;16.15;;
63189;SDS011;49286;44.460;26.114;2023-04-03T05:31:48;19.10;;;16.50;;
63189;SDS011;49286;44.460;26.114;2023-04-03T05:34:15;17.83;;;14.52;;
63189;SDS011;49286;44.460;26.114;2023-04-03T05:36:40;17.58;;;14.77;;
63189;SDS011;49286;44.460;26.114;2023-04-03T05:39:06;16.02;;;13.23;;
63189;SDS011;49286;44.460;26.114;2023-04-03T05:41:32;14.52;;;12.85;;
63189;SDS011;49286;44.460;26.114;2023-04-03T05:43:59;13.35;;;11.70;;
63189;SDS011;49286;44.460;26.114;2023-04-03T05:46:24;13.63;;;10.02;;
63189;SDS011;49286;44.460;26.114;2023-04-03T05:48:50;13.77;;;12.38;;
63189;SDS011;49286;44.460;26.114;2023-04-03T05:51:17;18.27;;;12.77;;
63189;SDS011;49286;44.460;26.114;2023-04-03T05:53:46;13.45;;;10.43;;
63189;SDS011;49286;44.460;26.114;2023-04-03T05:56:12;14.45;;;11.23;;
63189;SDS011;49286;44.460;26.114;2023-04-03T05:58:38;13.38;;;10.18;;
63189;SDS011;49286;44.460;26.114;2023-04-03T06:01:04;14.88;;;10.32;;
63189;SDS011;49286;44.460;26.114;2023-04-03T06:03:30;13.82;;;11.13;;
63189;SDS011;49286;44.460;26.114;2023-04-03T06:05:56;13.25;;;10.88;;
63189;SDS011;49286;44.460;26.114;2023-04-03T06:08:21;14.20;;;11.82;;
63189;SDS011;49286;44.460;26.114;2023-04-03T06:10:48;20.73;;;9.70;;
63189;SDS011;49286;44.460;26.114;2023-04-03T06:13:15;11.10;;;9.43;;
63189;SDS011;49286;44.460;26.114;2023-04-03T06:15:41;16.75;;;11.25;;
63189;SDS011;49286;44.460;26.114;2023-04-03T06:18:06;13.02;;;10.43;;
63189;SDS011;49286;44.460;26.114;2023-04-03T06:20:32;13.18;;;9.32;;
63189;SDS011;49286;44.460;26.114;2023-04-03T06:22:57;14.40;;;9.93;;
63189;SDS011;49286;44.460;26.114;2023-04-03T06:25:23;14.25;;;8.93;;
63189;SDS011;49286;44.460;26.114;2023-04-03T06:27:48;13.40;;;8.60;;
63189;SDS011;49286;44.460;26.114;2023-04-03T06:30:14;22.23;;;9.30;;
63189;SDS011;49286;44.460;26.114;2023-04-03T06:32:39;11.15;;;7.97;;
63189;SDS011;49286;44.460;26.114;2023-04-03T06:35:05;11.93;;;7.97;;
63189;SDS011;49286;44.460;26.114;2023-04-03T06:37:31;13.75;;;9.73;;
63189;SDS011;49286;44.460;26.114;2023-04-03T06:40:00;16.63;;;9.90;;
63189;SDS011;49286;44.460;26.114;2023-04-03T06:42:28;10.48;;;7.70;;
63189;SDS011;49286;44.460;26.114;2023-04-03T06:44:53;12.90;;;9.80;;
63189;SDS011;49286;44.460;26.114;2023-04-03T06:47:18;11.98;;;9.15;;
63189;SDS011;49286;44.460;26.114;2023-04-03T06:49:44;13.68;;;9.98;;
63189;SDS011;49286;44.460;26.114;2023-04-03T06:52:11;13.85;;;9.25;;
63189;SDS011;49286;44.460;26.114;2023-04-03T06:54:38;16.05;;;10.35;;
63189;SDS011;49286;44.460;26.114;2023-04-03T06:57:04;17.17;;;10.65;;
63189;SDS011;49286;44.460;26.114;2023-04-03T06:59:29;12.30;;;9.95;;
63189;SDS011;49286;44.460;26.114;2023-04-03T07:01:55;13.27;;;9.32;;
63189;SDS011;49286;44.460;26.114;2023-04-03T07:04:20;14.48;;;9.93;;
63189;SDS011;49286;44.460;26.114;2023-04-03T07:06:46;16.50;;;10.48;;
63189;SDS011;49286;44.460;26.114;2023-04-03T07:09:15;14.20;;;10.13;;
63189;SDS011;49286;44.460;26.114;2023-04-03T07:11:40;18.90;;;11.13;;
63189;SDS011;49286;44.460;26.114;2023-04-03T07:14:06;10.73;;;8.50;;
63189;SDS011;49286;44.460;26.114;2023-04-03T07:16:33;13.23;;;9.43;;
63189;SDS011;49286;44.460;26.114;2023-04-03T07:19:00;13.68;;;10.15;;
63189;SDS011;49286;44.460;26.114;2023-04-03T07:21:26;17.60;;;10.43;;
63189;SDS011;49286;44.460;26.114;2023-04-03T07:23:52;12.70;;;7.07;;
63189;SDS011;49286;44.460;26.114;2023-04-03T07:26:18;15.82;;;10.77;;
63189;SDS011;49286;44.460;26.114;2023-04-03T07:28:48;19.85;;;10.90;;
63189;SDS011;49286;44.460;26.114;2023-04-03T07:31:15;11.50;;;8.88;;
63189;SDS011;49286;44.460;26.114;2023-04-03T07:33:42;19.60;;;10.02;;
63189;SDS011;49286;44.460;26.114;2023-04-03T07:36:08;13.32;;;10.00;;
63189;SDS011;49286;44.460;26.114;2023-04-03T07:38:35;14.75;;;10.50;;
63189;SDS011;49286;44.460;26.114;2023-04-03T07:41:01;34.53;;;11.93;;
63189;SDS011;49286;44.460;26.114;2023-04-03T07:43:32;13.15;;;10.32;;
63189;SDS011;49286;44.460;26.114;2023-04-03T07:45:59;18.02;;;11.05;;
63189;SDS011;49286;44.460;26.114;2023-04-03T07:48:25;14.13;;;10.23;;
63189;SDS011;49286;44.460;26.114;2023-04-03T07:50:51;17.08;;;11.15;;
63189;SDS011;49286;44.460;26.114;2023-04-03T07:53:17;14.13;;;10.20;;
63189;SDS011;49286;44.460;26.114;2023-04-03T07:55:43;11.73;;;9.50;;
63189;SDS011;49286;44.460;26.114;2023-04-03T07:58:13;13.10;;;9.65;;
63189;SDS011;49286;44.460;26.114;2023-04-03T08:00:40;15.02;;;9.57;;
63189;SDS011;49286;44.460;26.114;2023-04-03T08:03:06;16.40;;;11.07;;
63189;SDS011;49286;44.460;26.114;2023-04-03T08:05:39;17.58;;;9.43;;
63189;SDS011;49286;44.460;26.114;2023-04-03T08:08:06;12.95;;;9.20;;
63189;SDS011;49286;44.460;26.114;2023-04-03T08:10:32;13.07;;;9.65;;
63189;SDS011;49286;44.460;26.114;2023-04-03T08:12:59;19.63;;;10.98;;
63189;SDS011;49286;44.460;26.114;2023-04-03T08:15:24;10.40;;;8.20;;
63189;SDS011;49286;44.460;26.114;2023-04-03T08:17:50;17.55;;;11.23;;
63189;SDS011;49286;44.460;26.114;2023-04-03T08:20:16;15.55;;;11.48;;
63189;SDS011;49286;44.460;26.114;2023-04-03T08:22:42;26.60;;;11.82;;
63189;SDS011;49286;44.460;26.114;2023-04-03T08:25:08;14.50;;;11.10;;
63189;SDS011;49286;44.460;26.114;2023-04-03T08:27:34;15.48;;;9.50;;
63189;SDS011;49286;44.460;26.114;2023-04-03T08:29:59;14.38;;;9.98;;
63189;SDS011;49286;44.460;26.114;2023-04-03T08:32:25;13.85;;;10.88;;
63189;SDS011;49286;44.460;26.114;2023-04-03T08:34:52;15.18;;;10.30;;
63189;SDS011;49286;44.460;26.114;2023-04-03T08:37:17;91.55;;;20.92;;
63189;SDS011;49286;44.460;26.114;2023-04-03T08:39:44;16.83;;;10.88;;
63189;SDS011;49286;44.460;26.114;2023-04-03T08:45:06;15.50;;;10.48;;
63189;SDS011;49286;44.460;26.114;2023-04-03T08:50:13;18.90;;;12.23;;
63189;SDS011;49286;44.460;26.114;2023-04-03T08:52:44;28.48;;;12.00;;
63189;SDS011;49286;44.460;26.114;2023-04-03T08:55:24;12.57;;;10.68;;
63189;SDS011;49286;44.460;26.114;2023-04-03T09:00:34;12.18;;;8.98;;
63189;SDS011;49286;44.460;26.114;2023-04-03T09:03:14;14.25;;;10.60;;
63189;SDS011;49286;44.460;26.114;2023-04-03T09:05:45;13.98;;;10.68;;
63189;SDS011;49286;44.460;26.114;2023-04-03T09:08:24;13.63;;;8.75;;
63189;SDS011;49286;44.460;26.114;2023-04-03T09:11:04;11.63;;;8.52;;
63189;SDS011;49286;44.460;26.114;2023-04-03T09:13:48;14.07;;;10.93;;
63189;SDS011;49286;44.460;26.114;2023-04-03T09:21:55;15.93;;;8.57;;
63189;SDS011;49286;44.460;26.114;2023-04-03T09:24:42;13.27;;;8.07;;
63189;SDS011;49286;44.460;26.114;2023-04-03T09:27:10;20.75;;;10.52;;
63189;SDS011;49286;44.460;26.114;2023-04-03T09:29:41;19.42;;;11.45;;
63189;SDS011;49286;44.460;26.114;2023-04-03T09:32:22;19.08;;;9.68;;
63189;SDS011;49286;44.460;26.114;2023-04-03T09:34:52;11.25;;;8.18;;
63189;SDS011;49286;44.460;26.114;2023-04-03T09:37:35;14.32;;;9.25;;
63189;SDS011;49286;44.460;26.114;2023-04-03T09:40:04;12.50;;;9.68;;
63189;SDS011;49286;44.460;26.114;2023-04-03T09:42:31;24.55;;;10.98;;
63189;SDS011;49286;44.460;26.114;2023-04-03T09:44:58;15.10;;;10.23;;
63189;SDS011;49286;44.460;26.114;2023-04-03T09:47:38;15.45;;;10.93;;
63189;SDS011;49286;44.460;26.114;2023-04-03T09:52:41;12.73;;;8.25;;
63189;SDS011;49286;44.460;26.114;2023-04-03T09:55:16;10.52;;;7.60;;
63189;SDS011;49286;44.460;26.114;2023-04-03T09:57:57;10.35;;;7.80;;
63189;SDS011;49286;44.460;26.114;2023-04-03T10:00:31;12.63;;;8.45;;
63189;SDS011;49286;44.460;26.114;2023-04-03T10:03:00;11.87;;;7.97;;
63189;SDS011;49286;44.460;26.114;2023-04-03T10:05:36;17.13;;;8.63;;
63189;SDS011;49286;44.460;26.114;2023-04-03T10:08:29;9.73;;;7.97;;
63189;SDS011;49286;44.460;26.114;2023-04-03T10:11:12;22.05;;;11.85;;
63189;SDS011;49286;44.460;26.114;2023-04-03T10:13:52;13.07;;;9.02;;
63189;SDS011;49286;44.460;26.114;2023-04-03T10:16:35;9.88;;;7.85;;
63189;SDS011;49286;44.460;26.114;2023-04-03T10:21:55;22.77;;;10.98;;
63189;SDS011;49286;44.460;26.114;2023-04-03T10:24:30;12.07;;;9.00;;
63189;SDS011;49286;44.460;26.114;2023-04-03T10:27:21;14.77;;;8.90;;
63189;SDS011;49286;44.460;26.114;2023-04-03T10:30:32;10.60;;;9.07;;
63189;SDS011;49286;44.460;26.114;2023-04-03T10:40:59;11.38;;;9.88;;
63189;SDS011;49286;44.460;26.114;2023-04-03T10:44:06;14.00;;;10.63;;
63189;SDS011;49286;44.460;26.114;2023-04-03T10:46:46;14.80;;;9.65;;
63189;SDS011;49286;44.460;26.114;2023-04-03T10:52:02;19.83;;;10.45;;
63189;SDS011;49286;44.460;26.114;2023-04-03T10:54:40;12.15;;;9.00;;
63189;SDS011;49286;44.460;26.114;2023-04-03T10:57:14;11.38;;;8.32;;
63189;SDS011;49286;44.460;26.114;2023-04-03T10:59:44;15.43;;;8.90;;
63189;SDS011;49286;44.460;26.114;2023-04-03T11:02:32;13.93;;;8.50;;
63189;SDS011;49286;44.460;26.114;2023-04-03T11:05:15;9.35;;;8.07;;
63189;SDS011;49286;44.460;26.114;2023-04-03T11:07:50;22.08;;;9.25;;
63189;SDS011;49286;44.460;26.114;2023-04-03T11:10:21;13.88;;;9.43;;
63189;SDS011;49286;44.460;26.114;2023-04-03T11:15:50;12.85;;;9.82;;
63189;SDS011;49286;44.460;26.114;2023-04-03T11:18:20;19.60;;;9.27;;
63189;SDS011;49286;44.460;26.114;2023-04-03T11:20:58;12.60;;;9.90;;
63189;SDS011;49286;44.460;26.114;2023-04-03T11:23:34;12.57;;;9.93;;
63189;SDS011;49286;44.460;26.114;2023-04-03T11:26:11;15.70;;;10.70;;
63189;SDS011;49286;44.460;26.114;2023-04-03T11:28:39;13.50;;;9.88;;
63189;SDS011;49286;44.460;26.114;2023-04-03T11:33:55;17.63;;;12.10;;
63189;SDS011;49286;44.460;26.114;2023-04-03T11:36:31;14.15;;;11.48;;
63189;SDS011;49286;44.460;26.114;2023-04-03T11:39:16;15.48;;;12.20;;
63189;SDS011;49286;44.460;26.114;2023-04-03T11:44:51;11.65;;;9.55;;
63189;SDS011;49286;44.460;26.114;2023-04-03T11:47:56;13.02;;;8.65;;
63189;SDS011;49286;44.460;26.114;2023-04-03T11:50:45;16.58;;;11.70;;
63189;SDS011;49286;44.460;26.114;2023-04-03T11:58:18;14.68;;;10.60;;
63189;SDS011;49286;44.460;26.114;2023-04-03T12:00:49;13.60;;;11.32;;
63189;SDS011;49286;44.460;26.114;2023-04-03T12:05:52;15.95;;;10.93;;
63189;SDS011;49286;44.460;26.114;2023-04-03T12:16:07;13.73;;;9.55;;
63189;SDS011;49286;44.460;26.114;2023-04-03T12:43:20;16.20;;;7.93;;
63189;SDS011;49286;44.460;26.114;2023-04-03T12:48:33;10.80;;;8.07;;
63189;SDS011;49286;44.460;26.114;2023-04-03T12:51:14;13.18;;;7.72;;
63189;SDS011;49286;44.460;26.114;2023-04-03T12:53:43;10.02;;;7.70;;
63189;SDS011;49286;44.460;26.114;2023-04-03T12:56:21;10.95;;;8.00;;
63189;SDS011;49286;44.460;26.114;2023-04-03T12:58:47;14.98;;;8.68;;
63189;SDS011;49286;44.460;26.114;2023-04-03T13:01:15;14.07;;;9.70;;
63189;SDS011;49286;44.460;26.114;2023-04-03T13:03:48;12.23;;;9.73;;
63189;SDS011;49286;44.460;26.114;2023-04-03T13:06:18;12.55;;;9.98;;
63189;SDS011;49286;44.460;26.114;2023-04-03T13:08:55;12.77;;;9.55;;
63189;SDS011;49286;44.460;26.114;2023-04-03T13:11:23;13.75;;;10.82;;
63189;SDS011;49286;44.460;26.114;2023-04-03T13:13:57;13.77;;;9.93;;
63189;SDS011;49286;44.460;26.114;2023-04-03T13:16:28;15.82;;;10.98;;
63189;SDS011;49286;44.460;26.114;2023-04-03T13:18:55;16.88;;;10.95;;
63189;SDS011;49286;44.460;26.114;2023-04-03T13:21:22;16.15;;;11.57;;
63189;SDS011;49286;44.460;26.114;2023-04-03T13:23:50;17.40;;;10.93;;
63189;SDS011;49286;44.460;26.114;2023-04-03T13:26:20;15.02;;;10.43;;
63189;SDS011;49286;44.460;26.114;2023-04-03T13:28:47;16.55;;;11.23;;
63189;SDS011;49286;44.460;26.114;2023-04-03T13:33:53;21.00;;;10.40;;
63189;SDS011;49286;44.460;26.114;2023-04-03T13:36:36;13.00;;;9.32;;
63189;SDS011;49286;44.460;26.114;2023-04-03T13:41:38;16.83;;;10.05;;
63189;SDS011;49286;44.460;26.114;2023-04-03T13:50:31;13.32;;;9.30;;
63189;SDS011;49286;44.460;26.114;2023-04-03T13:52:48;11.18;;;8.93;;
63189;SDS011;49286;44.460;26.114;2023-04-03T13:55:21;18.83;;;9.88;;
63189;SDS011;49286;44.460;26.114;2023-04-03T13:57:50;26.85;;;14.27;;
63189;SDS011;49286;44.460;26.114;2023-04-03T14:02:56;19.38;;;12.10;;
63189;SDS011;49286;44.460;26.114;2023-04-03T14:05:22;35.95;;;20.00;;
63189;SDS011;49286;44.460;26.114;2023-04-03T14:07:50;37.22;;;18.35;;
63189;SDS011;49286;44.460;26.114;2023-04-03T14:10:16;22.65;;;14.00;;
63189;SDS011;49286;44.460;26.114;2023-04-03T14:12:42;19.48;;;12.55;;
63189;SDS011;49286;44.460;26.114;2023-04-03T14:15:27;16.77;;;9.82;;
63189;SDS011;49286;44.460;26.114;2023-04-03T14:17:55;15.90;;;9.77;;
63189;SDS011;49286;44.460;26.114;2023-04-03T14:20:22;33.30;;;20.10;;
63189;SDS011;49286;44.460;26.114;2023-04-03T14:22:50;16.55;;;12.05;;
63189;SDS011;49286;44.460;26.114;2023-04-03T14:25:16;15.55;;;10.00;;
63189;SDS011;49286;44.460;26.114;2023-04-03T14:27:46;14.38;;;9.93;;
63189;SDS011;49286;44.460;26.114;2023-04-03T14:30:18;22.42;;;12.90;;
63189;SDS011;49286;44.460;26.114;2023-04-03T14:32:55;15.10;;;10.63;;
63189;SDS011;49286;44.460;26.114;2023-04-03T14:35:21;18.13;;;12.32;;
63189;SDS011;49286;44.460;26.114;2023-04-03T14:37:47;20.00;;;12.27;;
63189;SDS011;49286;44.460;26.114;2023-04-03T14:40:18;17.02;;;11.43;;
63189;SDS011;49286;44.460;26.114;2023-04-03T14:42:45;15.32;;;11.45;;
63189;SDS011;49286;44.460;26.114;2023-04-03T14:45:13;18.98;;;11.90;;
63189;SDS011;49286;44.460;26.114;2023-04-03T14:47:48;17.70;;;12.10;;
63189;SDS011;49286;44.460;26.114;2023-04-03T14:50:18;15.45;;;12.73;;
63189;SDS011;49286;44.460;26.114;2023-04-03T18:07:46;35.35;;;23.90;;
63189;SDS011;49286;44.460;26.114;2023-04-03T18:10:12;32.38;;;25.15;;
63189;SDS011;49286;44.460;26.114;2023-04-03T18:12:38;30.02;;;24.17;;
63189;SDS011;49286;44.460;26.114;2023-04-03T18:15:06;31.77;;;24.13;;
63189;SDS011;49286;44.460;26.114;2023-04-03T18:17:33;36.33;;;25.58;;
63189;SDS011;49286;44.460;26.114;2023-04-03T18:19:58;29.65;;;23.55;;
63189;SDS011;49286;44.460;26.114;2023-04-03T18:22:24;33.75;;;24.10;;
63189;SDS011;49286;44.460;26.114;2023-04-03T18:24:51;33.63;;;26.83;;
63189;SDS011;49286;44.460;26.114;2023-04-03T18:27:18;33.35;;;27.73;;
63189;SDS011;49286;44.460;26.114;2023-04-03T18:29:47;40.50;;;27.50;;
63189;SDS011;49286;44.460;26.114;2023-04-03T18:32:16;45.50;;;27.88;;
63189;SDS011;49286;44.460;26.114;2023-04-03T18:34:44;35.03;;;27.92;;
63189;SDS011;49286;44.460;26.114;2023-04-03T18:37:10;33.35;;;26.25;;
63189;SDS011;49286;44.460;26.114;2023-04-03T18:39:35;36.35;;;27.60;;
63189;SDS011;49286;44.460;26.114;2023-04-03T18:42:05;34.38;;;24.25;;
63189;SDS011;49286;44.460;26.114;2023-04-03T18:44:35;30.85;;;22.60;;
63189;SDS011;49286;44.460;26.114;2023-04-03T18:47:03;30.27;;;19.92;;
63189;SDS011;49286;44.460;26.114;2023-04-03T18:49:29;21.77;;;18.70;;
63189;SDS011;49286;44.460;26.114;2023-04-03T18:51:57;20.48;;;17.92;;
63189;SDS011;49286;44.460;26.114;2023-04-03T18:54:22;20.77;;;16.73;;
63189;SDS011;49286;44.460;26.114;2023-04-03T18:56:48;27.33;;;17.92;;
63189;SDS011;49286;44.460;26.114;2023-04-03T18:59:13;20.02;;;17.30;;
63189;SDS011;49286;44.460;26.114;2023-04-03T19:01:39;19.67;;;14.73;;
63189;SDS011;49286;44.460;26.114;2023-04-03T19:04:05;17.98;;;13.07;;
63189;SDS011;49286;44.460;26.114;2023-04-03T19:06:32;18.15;;;15.57;;
63189;SDS011;49286;44.460;26.114;2023-04-03T19:08:58;14.80;;;11.95;;
63189;SDS011;49286;44.460;26.114;2023-04-03T19:11:24;16.70;;;12.65;;
63189;SDS011;49286;44.460;26.114;2023-04-03T19:13:49;26.33;;;14.02;;